sensor_id;sensor_type;location;lat;lon;timestamp;pressure;altitude;pressure_sealevel;temperature;humidity
72959;BME280;60008;50.826;6.896;2023-01-16T00:00:11;99279.47;;;5.01;100.00
72959;BME280;60008;50.826;6.896;2023-01-16T00:02:56;99276.69;;;5.03;100.00
72959;BME280;60008;50.826;6.896;2023-01-16T00:05:42;99260.59;;;5.06;100.00
72959;BME280;60008;50.826;6.896;2023-01-16T00:08:27;99256.03;;;5.08;100.00
72959;BME280;60008;50.826;6.896;2023-01-16T00:11:12;99249.63;;;5.18;100.00
72959;BME280;60008;50.826;6.896;2023-01-16T00:13:57;99247.97;;;5.25;100.00
72959;BME280;60008;50.826;6.896;2023-01-16T00:16:43;99237.81;;;5.30;100.00
72959;BME280;60008;50.826;6.896;2023-01-16T00:19:28;99236.66;;;5.33;100.00
72959;BME280;60008;50.826;6.896;2023-01-16T00:22:13;99225.81;;;5.36;100.00
72959;BME280;60008;50.826;6.896;2023-01-16T00:24:58;99225.34;;;5.32;100.00
72959;BME280;60008;50.826;6.896;2023-01-16T00:27:43;99221.22;;;5.30;100.00
72959;BME280;60008;50.826;6.896;2023-01-16T00:30:28;99219.59;;;5.21;100.00
72959;BME280;60008;50.826;6.896;2023-01-16T00:33:13;99209.75;;;5.23;100.00
72959;BME280;60008;50.826;6.896;2023-01-16T00:35:59;99210.91;;;5.20;100.00
72959;BME280;60008;50.826;6.896;2023-01-16T00:38:44;99206.47;;;5.21;100.00
72959;BME280;60008;50.826;6.896;2023-01-16T00:41:29;99196.78;;;5.21;100.00
72959;BME280;60008;50.826;6.896;2023-01-16T00:44:14;99194.97;;;5.22;100.00
72959;BME280;60008;50.826;6.896;2023-01-16T00:46:59;99186.59;;;5.18;100.00
72959;BME280;60008;50.826;6.896;2023-01-16T00:49:44;99180.22;;;5.13;100.00
72959;BME280;60008;50.826;6.896;2023-01-16T00:52:29;99175.94;;;5.12;100.00
72959;BME280;60008;50.826;6.896;2023-01-16T00:55:14;99177.91;;;5.10;100.00
72959;BME280;60008;50.826;6.896;2023-01-16T00:57:59;99182.66;;;5.06;100.00
72959;BME280;60008;50.826;6.896;2023-01-16T01:00:44;99180.53;;;5.02;100.00
72959;BME280;60008;50.826;6.896;2023-01-16T01:03:29;99182.97;;;4.95;100.00
72959;BME280;60008;50.826;6.896;2023-01-16T01:06:14;99177.25;;;4.92;100.00
72959;BME280;60008;50.826;6.896;2023-01-16T01:08:59;99171.31;;;4.90;100.00
72959;BME280;60008;50.826;6.896;2023-01-16T01:11:45;99162.63;;;4.81;100.00
72959;BME280;60008;50.826;6.896;2023-01-16T01:14:30;99161.66;;;4.82;100.00
72959;BME280;60008;50.826;6.896;2023-01-16T01:17:15;99155.75;;;4.72;100.00
72959;BME280;60008;50.826;6.896;2023-01-16T01:20:00;99153.75;;;4.74;100.00
72959;BME280;60008;50.826;6.896;2023-01-16T01:22:45;99145.06;;;4.73;100.00
72959;BME280;60008;50.826;6.896;2023-01-16T01:25:31;99138.53;;;4.69;100.00
72959;BME280;60008;50.826;6.896;2023-01-16T01:28:15;99130.78;;;4.60;100.00
72959;BME280;60008;50.826;6.896;2023-01-16T01:31:05;99127.84;;;4.63;100.00
72959;BME280;60008;50.826;6.896;2023-01-16T01:33:51;99119.47;;;4.67;100.00
72959;BME280;60008;50.826;6.896;2023-01-16T01:36:36;99119.31;;;4.69;100.00
72959;BME280;60008;50.826;6.896;2023-01-16T01:39:21;99107.50;;;4.73;100.00
72959;BME280;60008;50.826;6.896;2023-01-16T01:42:08;99104.09;;;4.72;100.00
72959;BME280;60008;50.826;6.896;2023-01-16T01:45:17;99097.38;;;4.78;100.00
72959;BME280;60008;50.826;6.896;2023-01-16T01:51:01;99082.41;;;4.78;100.00
72959;BME280;60008;50.826;6.896;2023-01-16T01:53:57;99086.50;;;4.81;100.00
72959;BME280;60008;50.826;6.896;2023-01-16T01:56:48;99078.63;;;4.73;100.00
72959;BME280;60008;50.826;6.896;2023-01-16T01:59:38;99065.69;;;4.71;100.00
72959;BME280;60008;50.826;6.896;2023-01-16T02:02:31;99065.06;;;4.69;100.00
72959;BME280;60008;50.826;6.896;2023-01-16T02:05:23;99056.19;;;4.70;100.00
72959;BME280;60008;50.826;6.896;2023-01-16T02:08:13;99059.94;;;4.68;100.00
72959;BME280;60008;50.826;6.896;2023-01-16T02:11:04;99044.72;;;4.63;100.00
72959;BME280;60008;50.826;6.896;2023-01-16T02:13:55;99034.72;;;4.59;100.00
72959;BME280;60008;50.826;6.896;2023-01-16T02:16:41;99034.22;;;4.63;100.00
72959;BME280;60008;50.826;6.896;2023-01-16T02:19:54;99028.00;;;4.56;100.00
72959;BME280;60008;50.826;6.896;2023-01-16T02:26:10;99009.16;;;4.45;100.00
72959;BME280;60008;50.826;6.896;2023-01-16T02:29:26;99010.63;;;4.47;100.00
72959;BME280;60008;50.826;6.896;2023-01-16T02:32:26;98999.94;;;4.41;100.00
72959;BME280;60008;50.826;6.896;2023-01-16T02:35:43;98996.19;;;4.43;100.00
72959;BME280;60008;50.826;6.896;2023-01-16T02:38:41;98979.28;;;4.38;100.00
72959;BME280;60008;50.826;6.896;2023-01-16T02:41:41;98978.97;;;4.33;100.00
72959;BME280;60008;50.826;6.896;2023-01-16T02:44:48;98967.66;;;4.32;100.00
72959;BME280;60008;50.826;6.896;2023-01-16T02:47:43;98968.00;;;4.29;100.00
72959;BME280;60008;50.826;6.896;2023-01-16T02:50:48;98964.72;;;4.27;100.00
72959;BME280;60008;50.826;6.896;2023-01-16T02:53:45;98952.44;;;4.28;100.00
72959;BME280;60008;50.826;6.896;2023-01-16T02:56:39;98939.50;;;4.26;100.00
72959;BME280;60008;50.826;6.896;2023-01-16T02:59:27;98927.53;;;4.15;100.00
72959;BME280;60008;50.826;6.896;2023-01-16T03:02:13;98928.34;;;4.08;100.00
72959;BME280;60008;50.826;6.896;2023-01-16T03:04:59;98913.63;;;3.99;100.00
72959;BME280;60008;50.826;6.896;2023-01-16T03:08:08;98907.69;;;3.97;100.00
72959;BME280;60008;50.826;6.896;2023-01-16T03:14:20;98885.94;;;3.80;100.00
72959;BME280;60008;50.826;6.896;2023-01-16T03:17:13;98883.31;;;3.72;100.00
72959;BME280;60008;50.826;6.896;2023-01-16T03:20:10;98875.94;;;3.68;100.00
72959;BME280;60008;50.826;6.896;2023-01-16T03:26:14;98864.97;;;3.56;100.00
72959;BME280;60008;50.826;6.896;2023-01-16T03:32:20;98845.81;;;3.47;100.00
72959;BME280;60008;50.826;6.896;2023-01-16T03:35:17;98852.84;;;3.47;100.00
72959;BME280;60008;50.826;6.896;2023-01-16T03:38:06;98841.72;;;3.53;100.00
72959;BME280;60008;50.826;6.896;2023-01-16T03:40:54;98831.72;;;3.56;100.00
72959;BME280;60008;50.826;6.896;2023-01-16T03:43:44;98819.78;;;3.54;100.00
72959;BME280;60008;50.826;6.896;2023-01-16T03:46:33;98822.72;;;3.51;100.00
72959;BME280;60008;50.826;6.896;2023-01-16T03:49:28;98819.31;;;3.67;100.00
72959;BME280;60008;50.826;6.896;2023-01-16T03:52:18;98807.69;;;3.69;100.00
72959;BME280;60008;50.826;6.896;2023-01-16T03:55:17;98794.41;;;3.54;100.00
72959;BME280;60008;50.826;6.896;2023-01-16T03:58:08;98786.72;;;3.61;100.00
72959;BME280;60008;50.826;6.896;2023-01-16T04:01:11;98769.84;;;3.72;100.00
72959;BME280;60008;50.826;6.896;2023-01-16T04:04:04;98762.81;;;3.72;100.00
72959;BME280;60008;50.826;6.896;2023-01-16T04:06:58;98750.06;;;3.69;100.00
72959;BME280;60008;50.826;6.896;2023-01-16T04:09:49;98745.94;;;3.75;100.00
72959;BME280;60008;50.826;6.896;2023-01-16T04:12:39;98737.41;;;3.73;100.00
72959;BME280;60008;50.826;6.896;2023-01-16T04:15:28;98717.63;;;3.70;100.00
72959;BME280;60008;50.826;6.896;2023-01-16T04:18:14;98704.38;;;3.64;100.00
72959;BME280;60008;50.826;6.896;2023-01-16T04:20:59;98701.78;;;3.64;100.00
72959;BME280;60008;50.826;6.896;2023-01-16T04:23:45;98687.22;;;3.53;100.00
72959;BME280;60008;50.826;6.896;2023-01-16T04:26:30;98679.03;;;3.56;100.00
72959;BME280;60008;50.826;6.896;2023-01-16T04:29:15;98666.41;;;3.59;100.00
72959;BME280;60008;50.826;6.896;2023-01-16T04:32:00;98653.34;;;3.51;100.00
72959;BME280;60008;50.826;6.896;2023-01-16T04:34:45;98641.25;;;3.50;100.00
72959;BME280;60008;50.826;6.896;2023-01-16T04:37:30;98626.97;;;3.61;100.00
72959;BME280;60008;50.826;6.896;2023-01-16T04:40:15;98617.78;;;3.65;100.00
72959;BME280;60008;50.826;6.896;2023-01-16T04:43:00;98606.66;;;3.63;100.00
72959;BME280;60008;50.826;6.896;2023-01-16T04:45:46;98597.31;;;3.69;100.00
72959;BME280;60008;50.826;6.896;2023-01-16T04:48:31;98590.72;;;3.73;100.00
72959;BME280;60008;50.826;6.896;2023-01-16T04:51:16;98582.19;;;3.79;100.00
72959;BME280;60008;50.826;6.896;2023-01-16T04:54:03;98580.19;;;3.89;100.00
72959;BME280;60008;50.826;6.896;2023-01-16T04:56:48;98566.41;;;3.95;100.00
72959;BME280;60008;50.826;6.896;2023-01-16T04:59:35;98547.84;;;4.04;100.00
72959;BME280;60008;50.826;6.896;2023-01-16T05:02:20;98533.41;;;4.08;100.00
72959;BME280;60008;50.826;6.896;2023-01-16T05:05:05;98535.19;;;4.08;100.00
72959;BME280;60008;50.826;6.896;2023-01-16T05:07:50;98528.97;;;4.09;100.00
72959;BME280;60008;50.826;6.896;2023-01-16T05:10:55;98520.09;;;4.18;100.00
72959;BME280;60008;50.826;6.896;2023-01-16T05:13:40;98515.94;;;4.24;100.00
72959;BME280;60008;50.826;6.896;2023-01-16T05:16:25;98502.38;;;4.20;100.00
72959;BME280;60008;50.826;6.896;2023-01-16T05:19:10;98493.63;;;4.28;100.00
72959;BME280;60008;50.826;6.896;2023-01-16T05:21:56;98479.19;;;4.32;100.00
72959;BME280;60008;50.826;6.896;2023-01-16T05:24:41;98468.78;;;4.38;100.00
72959;BME280;60008;50.826;6.896;2023-01-16T05:27:27;98459.94;;;4.39;100.00
72959;BME280;60008;50.826;6.896;2023-01-16T05:30:12;98448.38;;;4.48;100.00
72959;BME280;60008;50.826;6.896;2023-01-16T05:32:58;98440.13;;;4.51;100.00
72959;BME280;60008;50.826;6.896;2023-01-16T05:35:45;98428.94;;;4.57;100.00
72959;BME280;60008;50.826;6.896;2023-01-16T05:38:30;98414.03;;;4.58;100.00
72959;BME280;60008;50.826;6.896;2023-01-16T05:41:15;98405.25;;;4.65;100.00
72959;BME280;60008;50.826;6.896;2023-01-16T05:44:00;98399.84;;;4.67;100.00
72959;BME280;60008;50.826;6.896;2023-01-16T05:46:45;98398.81;;;4.68;100.00
72959;BME280;60008;50.826;6.896;2023-01-16T05:49:31;98401.28;;;4.69;100.00
72959;BME280;60008;50.826;6.896;2023-01-16T05:52:16;98398.66;;;4.69;100.00
72959;BME280;60008;50.826;6.896;2023-01-16T05:55:01;98394.41;;;4.68;100.00
72959;BME280;60008;50.826;6.896;2023-01-16T05:57:46;98392.94;;;4.66;100.00
72959;BME280;60008;50.826;6.896;2023-01-16T06:00:31;98376.13;;;4.60;100.00
72959;BME280;60008;50.826;6.896;2023-01-16T06:03:16;98366.72;;;4.66;100.00
72959;BME280;60008;50.826;6.896;2023-01-16T06:06:02;98371.78;;;4.67;100.00
72959;BME280;60008;50.826;6.896;2023-01-16T06:08:47;98357.88;;;4.67;100.00
72959;BME280;60008;50.826;6.896;2023-01-16T06:11:32;98345.94;;;4.64;100.00
72959;BME280;60008;50.826;6.896;2023-01-16T06:14:17;98343.31;;;4.64;100.00
72959;BME280;60008;50.826;6.896;2023-01-16T06:17:02;98330.00;;;4.66;100.00
72959;BME280;60008;50.826;6.896;2023-01-16T06:19:47;98327.63;;;4.71;100.00
72959;BME280;60008;50.826;6.896;2023-01-16T06:22:33;98311.53;;;4.74;100.00
72959;BME280;60008;50.826;6.896;2023-01-16T06:25:18;98295.16;;;4.72;100.00
72959;BME280;60008;50.826;6.896;2023-01-16T06:28:03;98285.91;;;4.76;100.00
72959;BME280;60008;50.826;6.896;2023-01-16T06:30:51;98272.69;;;4.84;100.00
72959;BME280;60008;50.826;6.896;2023-01-16T06:33:37;98256.94;;;4.84;100.00
72959;BME280;60008;50.826;6.896;2023-01-16T06:36:22;98255.16;;;4.85;100.00
72959;BME280;60008;50.826;6.896;2023-01-16T06:39:09;98239.00;;;5.02;100.00
72959;BME280;60008;50.826;6.896;2023-01-16T06:41:54;98241.78;;;5.01;100.00
72959;BME280;60008;50.826;6.896;2023-01-16T06:44:39;98238.09;;;4.95;100.00
72959;BME280;60008;50.826;6.896;2023-01-16T06:47:24;98239.66;;;4.90;100.00
72959;BME280;60008;50.826;6.896;2023-01-16T06:50:09;98243.81;;;4.84;100.00
72959;BME280;60008;50.826;6.896;2023-01-16T06:52:54;98226.84;;;4.80;100.00
72959;BME280;60008;50.826;6.896;2023-01-16T06:55:40;98224.38;;;4.78;100.00
72959;BME280;60008;50.826;6.896;2023-01-16T06:58:25;98215.72;;;4.78;100.00
72959;BME280;60008;50.826;6.896;2023-01-16T07:01:10;98199.41;;;4.82;100.00
72959;BME280;60008;50.826;6.896;2023-01-16T07:03:55;98184.13;;;4.86;100.00
72959;BME280;60008;50.826;6.896;2023-01-16T07:06:40;98169.81;;;4.89;100.00
72959;BME280;60008;50.826;6.896;2023-01-16T07:09:28;98160.13;;;4.89;100.00
72959;BME280;60008;50.826;6.896;2023-01-16T07:12:13;98142.19;;;4.93;100.00
72959;BME280;60008;50.826;6.896;2023-01-16T07:14:59;98129.28;;;4.91;100.00
72959;BME280;60008;50.826;6.896;2023-01-16T07:18:03;98124.44;;;4.95;100.00
72959;BME280;60008;50.826;6.896;2023-01-16T07:21:11;98111.97;;;4.97;100.00
72959;BME280;60008;50.826;6.896;2023-01-16T07:24:20;98105.50;;;4.99;100.00
72959;BME280;60008;50.826;6.896;2023-01-16T07:27:06;98103.25;;;4.96;100.00
72959;BME280;60008;50.826;6.896;2023-01-16T07:29:53;98091.94;;;4.96;100.00
72959;BME280;60008;50.826;6.896;2023-01-16T07:32:38;98088.28;;;4.90;100.00
72959;BME280;60008;50.826;6.896;2023-01-16T07:35:23;98084.44;;;4.93;100.00
72959;BME280;60008;50.826;6.896;2023-01-16T07:38:09;98076.53;;;4.86;100.00
72959;BME280;60008;50.826;6.896;2023-01-16T07:40:54;98077.53;;;4.85;100.00
72959;BME280;60008;50.826;6.896;2023-01-16T07:43:39;98076.47;;;4.79;100.00
72959;BME280;60008;50.826;6.896;2023-01-16T07:46:24;98074.00;;;4.71;100.00
72959;BME280;60008;50.826;6.896;2023-01-16T07:49:09;98073.53;;;4.68;100.00
72959;BME280;60008;50.826;6.896;2023-01-16T07:51:54;98064.81;;;4.61;100.00
72959;BME280;60008;50.826;6.896;2023-01-16T07:54:39;98067.25;;;4.62;100.00
72959;BME280;60008;50.826;6.896;2023-01-16T07:57:26;98065.19;;;4.58;100.00
72959;BME280;60008;50.826;6.896;2023-01-16T08:00:11;98069.25;;;4.60;100.00
72959;BME280;60008;50.826;6.896;2023-01-16T08:02:57;98047.53;;;4.66;100.00
72959;BME280;60008;50.826;6.896;2023-01-16T08:05:44;98044.69;;;4.68;100.00
72959;BME280;60008;50.826;6.896;2023-01-16T08:08:29;98032.59;;;4.67;100.00
72959;BME280;60008;50.826;6.896;2023-01-16T08:11:14;98020.69;;;4.64;100.00
72959;BME280;60008;50.826;6.896;2023-01-16T08:14:18;98015.59;;;4.63;100.00
72959;BME280;60008;50.826;6.896;2023-01-16T08:17:03;98007.94;;;4.61;100.00
72959;BME280;60008;50.826;6.896;2023-01-16T08:19:48;97997.63;;;4.60;100.00
72959;BME280;60008;50.826;6.896;2023-01-16T08:22:33;97994.63;;;4.63;100.00
72959;BME280;60008;50.826;6.896;2023-01-16T08:25:20;97975.28;;;4.64;100.00
72959;BME280;60008;50.826;6.896;2023-01-16T08:28:06;97969.59;;;4.60;100.00
72959;BME280;60008;50.826;6.896;2023-01-16T08:30:51;97961.13;;;4.65;100.00
72959;BME280;60008;50.826;6.896;2023-01-16T08:33:36;97954.09;;;4.65;100.00
72959;BME280;60008;50.826;6.896;2023-01-16T08:36:21;97959.09;;;4.60;100.00
72959;BME280;60008;50.826;6.896;2023-01-16T08:39:09;97951.22;;;4.60;100.00
72959;BME280;60008;50.826;6.896;2023-01-16T08:41:54;97948.00;;;4.58;100.00
72959;BME280;60008;50.826;6.896;2023-01-16T08:44:58;97942.75;;;4.58;100.00
72959;BME280;60008;50.826;6.896;2023-01-16T08:48:03;97942.28;;;4.48;100.00
72959;BME280;60008;50.826;6.896;2023-01-16T08:51:15;97936.59;;;4.45;100.00
72959;BME280;60008;50.826;6.896;2023-01-16T08:54:10;97931.53;;;4.43;100.00
72959;BME280;60008;50.826;6.896;2023-01-16T08:56:55;97934.16;;;4.43;100.00
72959;BME280;60008;50.826;6.896;2023-01-16T08:59:40;97919.06;;;4.45;100.00
72959;BME280;60008;50.826;6.896;2023-01-16T09:02:26;97923.88;;;4.42;100.00
72959;BME280;60008;50.826;6.896;2023-01-16T09:05:12;97924.69;;;4.42;100.00
72959;BME280;60008;50.826;6.896;2023-01-16T09:07:58;97913.59;;;4.40;100.00
72959;BME280;60008;50.826;6.896;2023-01-16T09:10:43;97911.13;;;4.39;100.00
72959;BME280;60008;50.826;6.896;2023-01-16T09:13:47;97900.66;;;4.39;100.00
72959;BME280;60008;50.826;6.896;2023-01-16T09:16:35;97895.88;;;4.49;100.00
72959;BME280;60008;50.826;6.896;2023-01-16T09:19:20;97890.63;;;4.49;100.00
72959;BME280;60008;50.826;6.896;2023-01-16T09:22:05;97880.34;;;4.47;100.00
72959;BME280;60008;50.826;6.896;2023-01-16T09:24:51;97882.75;;;4.49;100.00
72959;BME280;60008;50.826;6.896;2023-01-16T09:27:36;97873.47;;;4.46;100.00
72959;BME280;60008;50.826;6.896;2023-01-16T09:30:21;97857.34;;;4.49;100.00
72959;BME280;60008;50.826;6.896;2023-01-16T09:33:06;97856.34;;;4.50;100.00
72959;BME280;60008;50.826;6.896;2023-01-16T09:35:51;97848.50;;;4.57;100.00
72959;BME280;60008;50.826;6.896;2023-01-16T09:38:36;97849.47;;;4.49;100.00
72959;BME280;60008;50.826;6.896;2023-01-16T09:41:22;97844.13;;;4.64;100.00
72959;BME280;60008;50.826;6.896;2023-01-16T09:44:28;97838.66;;;4.59;100.00
72959;BME280;60008;50.826;6.896;2023-01-16T09:47:13;97842.50;;;4.63;100.00
72959;BME280;60008;50.826;6.896;2023-01-16T09:50:02;97831.56;;;4.59;100.00
72959;BME280;60008;50.826;6.896;2023-01-16T09:52:50;97839.28;;;4.67;100.00
72959;BME280;60008;50.826;6.896;2023-01-16T09:55:54;97837.47;;;4.61;100.00
72959;BME280;60008;50.826;6.896;2023-01-16T09:59:11;97832.81;;;4.63;100.00
72959;BME280;60008;50.826;6.896;2023-01-16T10:02:30;97820.94;;;4.67;100.00
72959;BME280;60008;50.826;6.896;2023-01-16T10:05:17;97799.59;;;4.77;100.00
72959;BME280;60008;50.826;6.896;2023-01-16T10:08:10;97801.44;;;4.83;100.00
72959;BME280;60008;50.826;6.896;2023-01-16T10:11:22;97786.66;;;4.69;100.00
72959;BME280;60008;50.826;6.896;2023-01-16T10:17:23;97765.53;;;4.90;100.00
72959;BME280;60008;50.826;6.896;2023-01-16T10:23:52;97761.25;;;4.76;100.00
72959;BME280;60008;50.826;6.896;2023-01-16T10:26:52;97751.13;;;4.73;100.00
72959;BME280;60008;50.826;6.896;2023-01-16T10:30:01;97740.28;;;4.82;100.00
72959;BME280;60008;50.826;6.896;2023-01-16T10:33:30;97745.09;;;4.79;100.00
72959;BME280;60008;50.826;6.896;2023-01-16T10:36:19;97744.56;;;5.03;100.00
72959;BME280;60008;50.826;6.896;2023-01-16T10:39:09;97734.06;;;4.97;100.00
72959;BME280;60008;50.826;6.896;2023-01-16T10:45:23;97715.06;;;4.88;100.00
72959;BME280;60008;50.826;6.896;2023-01-16T10:48:28;97717.31;;;4.91;100.00
72959;BME280;60008;50.826;6.896;2023-01-16T10:51:33;97708.41;;;4.92;100.00
72959;BME280;60008;50.826;6.896;2023-01-16T10:54:19;97699.75;;;5.11;100.00
72959;BME280;60008;50.826;6.896;2023-01-16T10:57:14;97687.84;;;4.96;100.00
72959;BME280;60008;50.826;6.896;2023-01-16T11:00:06;97692.00;;;4.70;100.00
72959;BME280;60008;50.826;6.896;2023-01-16T11:02:51;97688.81;;;4.75;100.00
72959;BME280;60008;50.826;6.896;2023-01-16T11:05:37;97675.47;;;4.76;100.00
72959;BME280;60008;50.826;6.896;2023-01-16T11:08:21;97671.84;;;4.84;100.00
72959;BME280;60008;50.826;6.896;2023-01-16T11:11:10;97659.16;;;4.74;100.00
72959;BME280;60008;50.826;6.896;2023-01-16T11:14:22;97648.06;;;4.72;100.00
72959;BME280;60008;50.826;6.896;2023-01-16T11:17:30;97639.56;;;4.77;100.00
72959;BME280;60008;50.826;6.896;2023-01-16T11:20:35;97634.94;;;4.79;100.00
72959;BME280;60008;50.826;6.896;2023-01-16T11:23:25;97640.41;;;4.97;100.00
72959;BME280;60008;50.826;6.896;2023-01-16T11:26:11;97624.25;;;4.87;100.00
72959;BME280;60008;50.826;6.896;2023-01-16T11:28:57;97621.22;;;5.03;100.00
72959;BME280;60008;50.826;6.896;2023-01-16T11:31:47;97602.97;;;5.67;100.00
72959;BME280;60008;50.826;6.896;2023-01-16T11:34:36;97595.44;;;5.71;100.00
72959;BME280;60008;50.826;6.896;2023-01-16T11:37:26;97598.97;;;6.09;100.00
72959;BME280;60008;50.826;6.896;2023-01-16T11:40:20;97591.06;;;5.58;100.00
72959;BME280;60008;50.826;6.896;2023-01-16T11:43:13;97584.16;;;5.64;100.00
72959;BME280;60008;50.826;6.896;2023-01-16T11:46:38;97579.47;;;5.85;100.00
72959;BME280;60008;50.826;6.896;2023-01-16T11:49:35;97570.38;;;5.81;100.00
72959;BME280;60008;50.826;6.896;2023-01-16T11:52:22;97575.00;;;5.92;100.00
72959;BME280;60008;50.826;6.896;2023-01-16T11:55:14;97568.88;;;5.48;100.00
72959;BME280;60008;50.826;6.896;2023-01-16T11:58:06;97561.25;;;5.26;100.00
72959;BME280;60008;50.826;6.896;2023-01-16T12:03:53;97551.53;;;5.33;100.00
72959;BME280;60008;50.826;6.896;2023-01-16T12:06:52;97553.00;;;5.10;100.00
72959;BME280;60008;50.826;6.896;2023-01-16T12:09:53;97539.28;;;5.08;100.00
72959;BME280;60008;50.826;6.896;2023-01-16T12:12:47;97527.78;;;5.02;100.00
72959;BME280;60008;50.826;6.896;2023-01-16T12:16:01;97512.00;;;5.15;100.00
72959;BME280;60008;50.826;6.896;2023-01-16T12:19:00;97505.31;;;5.26;100.00
72959;BME280;60008;50.826;6.896;2023-01-16T12:24:58;97483.03;;;5.41;100.00
72959;BME280;60008;50.826;6.896;2023-01-16T12:31:17;97481.03;;;5.37;100.00
72959;BME280;60008;50.826;6.896;2023-01-16T12:38:06;97469.28;;;5.46;100.00
72959;BME280;60008;50.826;6.896;2023-01-16T12:41:22;97455.19;;;5.40;100.00
72959;BME280;60008;50.826;6.896;2023-01-16T12:44:41;97441.25;;;5.33;100.00
72959;BME280;60008;50.826;6.896;2023-01-16T12:47:44;97431.53;;;5.40;100.00
72959;BME280;60008;50.826;6.896;2023-01-16T12:54:25;97421.94;;;5.59;100.00
72959;BME280;60008;50.826;6.896;2023-01-16T12:57:42;97395.53;;;5.48;100.00
72959;BME280;60008;50.826;6.896;2023-01-16T13:00:39;97398.41;;;5.71;100.00
72959;BME280;60008;50.826;6.896;2023-01-16T13:03:34;97391.44;;;5.58;100.00
72959;BME280;60008;50.826;6.896;2023-01-16T13:09:22;97376.91;;;5.56;100.00
72959;BME280;60008;50.826;6.896;2023-01-16T13:12:18;97383.72;;;5.63;100.00
72959;BME280;60008;50.826;6.896;2023-01-16T13:15:25;97371.22;;;5.65;100.00
72959;BME280;60008;50.826;6.896;2023-01-16T13:18:18;97366.56;;;5.61;100.00
72959;BME280;60008;50.826;6.896;2023-01-16T13:21:08;97361.78;;;5.51;100.00
72959;BME280;60008;50.826;6.896;2023-01-16T13:24:02;97346.97;;;5.32;100.00
72959;BME280;60008;50.826;6.896;2023-01-16T13:26:54;97344.91;;;5.34;100.00
72959;BME280;60008;50.826;6.896;2023-01-16T13:29:55;97335.41;;;5.33;100.00
72959;BME280;60008;50.826;6.896;2023-01-16T13:32:54;97329.75;;;5.36;100.00
72959;BME280;60008;50.826;6.896;2023-01-16T13:35:53;97327.53;;;5.39;100.00
72959;BME280;60008;50.826;6.896;2023-01-16T13:41:39;97317.28;;;5.31;100.00
72959;BME280;60008;50.826;6.896;2023-01-16T13:44:35;97318.28;;;5.30;100.00
72959;BME280;60008;50.826;6.896;2023-01-16T13:47:40;97315.44;;;5.32;100.00
72959;BME280;60008;50.826;6.896;2023-01-16T13:50:27;97299.47;;;5.33;100.00
72959;BME280;60008;50.826;6.896;2023-01-16T13:53:13;97309.81;;;5.28;100.00
72959;BME280;60008;50.826;6.896;2023-01-16T13:56:08;97303.00;;;5.21;100.00
72959;BME280;60008;50.826;6.896;2023-01-16T13:59:04;97300.78;;;5.18;100.00
72959;BME280;60008;50.826;6.896;2023-01-16T14:04:36;97292.25;;;5.29;100.00
72959;BME280;60008;50.826;6.896;2023-01-16T14:07:48;97279.97;;;5.23;100.00
72959;BME280;60008;50.826;6.896;2023-01-16T14:13:41;97275.25;;;5.31;100.00
72959;BME280;60008;50.826;6.896;2023-01-16T14:16:34;97260.47;;;5.37;100.00
72959;BME280;60008;50.826;6.896;2023-01-16T14:19:22;97256.25;;;5.36;100.00
72959;BME280;60008;50.826;6.896;2023-01-16T14:22:17;97255.00;;;5.38;100.00
72959;BME280;60008;50.826;6.896;2023-01-16T14:25:03;97242.69;;;5.39;100.00
72959;BME280;60008;50.826;6.896;2023-01-16T14:27:53;97242.69;;;5.39;100.00
72959;BME280;60008;50.826;6.896;2023-01-16T14:30:39;97234.22;;;5.37;100.00
72959;BME280;60008;50.826;6.896;2023-01-16T14:33:24;97228.56;;;5.40;100.00
72959;BME280;60008;50.826;6.896;2023-01-16T14:36:13;97230.16;;;5.41;100.00
72959;BME280;60008;50.826;6.896;2023-01-16T14:38:58;97226.28;;;5.43;100.00
72959;BME280;60008;50.826;6.896;2023-01-16T14:41:46;97223.06;;;5.41;100.00
72959;BME280;60008;50.826;6.896;2023-01-16T14:51:17;97201.66;;;5.45;100.00
72959;BME280;60008;50.826;6.896;2023-01-16T14:57:31;97202.84;;;5.49;100.00
72959;BME280;60008;50.826;6.896;2023-01-16T15:00:18;97196.19;;;5.46;100.00
72959;BME280;60008;50.826;6.896;2023-01-16T15:03:12;97195.59;;;5.44;100.00
72959;BME280;60008;50.826;6.896;2023-01-16T15:06:00;97189.75;;;5.42;100.00
72959;BME280;60008;50.826;6.896;2023-01-16T15:08:51;97193.19;;;5.43;100.00
72959;BME280;60008;50.826;6.896;2023-01-16T15:11:42;97188.34;;;5.39;100.00
72959;BME280;60008;50.826;6.896;2023-01-16T15:14:30;97184.72;;;5.40;100.00
72959;BME280;60008;50.826;6.896;2023-01-16T15:17:26;97188.78;;;5.36;100.00
72959;BME280;60008;50.826;6.896;2023-01-16T15:20:31;97177.28;;;5.37;100.00
72959;BME280;60008;50.826;6.896;2023-01-16T15:23:36;97178.94;;;5.32;100.00
72959;BME280;60008;50.826;6.896;2023-01-16T15:26:43;97173.69;;;5.32;100.00
72959;BME280;60008;50.826;6.896;2023-01-16T15:32:22;97166.63;;;5.32;100.00
72959;BME280;60008;50.826;6.896;2023-01-16T15:35:15;97163.63;;;5.29;100.00
72959;BME280;60008;50.826;6.896;2023-01-16T15:38:02;97168.63;;;5.30;100.00
72959;BME280;60008;50.826;6.896;2023-01-16T15:40:52;97169.66;;;5.29;100.00
72959;BME280;60008;50.826;6.896;2023-01-16T15:43:39;97176.75;;;5.29;100.00
72959;BME280;60008;50.826;6.896;2023-01-16T15:47:46;97164.41;;;5.29;100.00
72959;BME280;60008;50.826;6.896;2023-01-16T15:50:43;97160.59;;;5.25;100.00
72959;BME280;60008;50.826;6.896;2023-01-16T15:53:37;97167.25;;;5.28;100.00
72959;BME280;60008;50.826;6.896;2023-01-16T15:56:35;97166.25;;;5.29;100.00
72959;BME280;60008;50.826;6.896;2023-01-16T15:59:38;97170.69;;;5.28;100.00
72959;BME280;60008;50.826;6.896;2023-01-16T16:02:25;97166.66;;;5.26;100.00
72959;BME280;60008;50.826;6.896;2023-01-16T16:05:14;97161.63;;;5.24;100.00
72959;BME280;60008;50.826;6.896;2023-01-16T16:08:04;97167.31;;;5.21;100.00
72959;BME280;60008;50.826;6.896;2023-01-16T16:10:53;97163.88;;;5.21;100.00
72959;BME280;60008;50.826;6.896;2023-01-16T16:13:59;97162.34;;;5.13;100.00